Time;durP1;ratioP1;P1;durP2;ratioP2;P2;SDS_P1;SDS_P2;PMS_P1;PMS_P2;Temp;Humidity;BMP_temperature;BMP_pressure;BME280_temperature;BME280_humidity;BME280_pressure;Samples;Min_cycle;Max_cycle;Signal;HPM_P1;HPM_P2
2022/08/27 00:01:52;;;;;;;;;4.67;4.67;;;;;;;;5077931;27;45918;-74
2022/08/27 00:04:17;;;;;;;;;4.00;4.00;;;;;;;;5078259;27;45337;-75
2022/08/27 00:06:42;;;;;;;;;4.33;3.33;;;;;;;;5060318;28;45419;-74
2022/08/27 00:09:08;;;;;;;;;5.00;5.00;;;;;;;;5078300;27;45477;-74
2022/08/27 00:11:33;;;;;;;;;4.00;4.00;;;;;;;;5077505;27;46095;-75
2022/08/27 00:13:59;;;;;;;;;5.33;5.33;;;;;;;;5078353;27;45427;-74
2022/08/27 00:16:24;;;;;;;;;3.33;3.33;;;;;;;;5078158;27;45407;-75
2022/08/27 00:18:49;;;;;;;;;3.00;3.00;;;;;;;;5059943;28;45352;-75
2022/08/27 00:21:15;;;;;;;;;3.67;3.67;;;;;;;;5077946;27;46123;-75
2022/08/27 00:23:41;;;;;;;;;3.33;3.00;;;;;;;;5077019;27;45367;-74
2022/08/27 00:26:06;;;;;;;;;3.67;3.67;;;;;;;;5077821;27;45425;-75
2022/08/27 00:28:32;;;;;;;;;4.00;4.00;;;;;;;;5077667;27;45410;-75
2022/08/27 00:30:57;;;;;;;;;3.67;3.67;;;;;;;;5076868;27;45988;-74
2022/08/27 00:33:23;;;;;;;;;4.00;4.00;;;;;;;;5077617;27;45355;-75
2022/08/27 00:35:48;;;;;;;;;4.00;4.00;;;;;;;;5065901;27;45324;-75
2022/08/27 00:38:14;;;;;;;;;5.00;5.00;;;;;;;;5077589;27;45431;-74
2022/08/27 00:40:39;;;;;;;;;4.33;3.33;;;;;;;;5077649;27;45391;-75
2022/08/27 00:43:05;;;;;;;;;5.33;5.33;;;;;;;;5077829;27;45316;-74
2022/08/27 00:45:35;;;;;;;;;4.33;4.33;;;;;;;;5077394;27;45368;-75
2022/08/27 00:48:00;;;;;;;;;6.33;5.00;;;;;;;;5065189;27;45305;-75
2022/08/27 00:50:28;;;;;;;;;4.67;4.67;;;;;;;;5077330;27;46094;-75
2022/08/27 00:52:56;;;;;;;;;4.67;4.00;;;;;;;;5077259;27;45213;-75
2022/08/27 00:55:26;;;;;;;;;5.33;4.33;;;;;;;;5077217;27;45380;-74
2022/08/27 00:58:08;;;;;;;;;4.00;4.00;;;;;;;;5077247;27;45412;-74
2022/08/27 01:00:33;;;;;;;;;4.67;4.33;;;;;;;;5059059;28;46300;-75
2022/08/27 01:02:58;;;;;;;;;6.00;6.00;;;;;;;;5080376;27;45827;-75
2022/08/27 01:05:25;;;;;;;;;6.00;6.00;;;;;;;;5096772;27;45346;-76
2022/08/27 01:07:52;;;;;;;;;4.33;4.33;;;;;;;;5097584;27;45460;-75
2022/08/27 01:10:20;;;;;;;;;5.00;5.00;;;;;;;;5097628;27;45378;-75
2022/08/27 01:12:45;;;;;;;;;8.00;7.00;;;;;;;;5097601;27;45254;-76
2022/08/27 01:15:12;;;;;;;;;5.67;5.67;;;;;;;;5097647;27;45323;-75
2022/08/27 01:17:38;;;;;;;;;4.33;4.33;;;;;;;;5097893;27;45556;-75
2022/08/27 01:20:07;;;;;;;;;4.00;4.00;;;;;;;;5097252;27;46899;-74
2022/08/27 01:22:47;;;;;;;;;4.00;4.00;;;;;;;;5097103;27;45234;-75
2022/08/27 01:25:14;;;;;;;;;6.00;5.67;;;;;;;;5097082;27;45580;-75
2022/08/27 01:27:40;;;;;;;;;5.00;4.67;;;;;;;;5097551;27;45367;-74
2022/08/27 01:30:06;;;;;;;;;5.00;5.00;;;;;;;;5093619;27;45381;-75
2022/08/27 01:32:32;;;;;;;;;3.33;3.00;;;;;;;;5086203;27;45363;-75
2022/08/27 01:34:58;;;;;;;;;6.00;5.67;;;;;;;;5096914;27;45270;-74
2022/08/27 01:37:25;;;;;;;;;4.33;3.67;;;;;;;;5096708;27;45459;-75
2022/08/27 01:39:51;;;;;;;;;6.00;4.33;;;;;;;;5097347;27;47079;-74
2022/08/27 01:42:22;;;;;;;;;4.00;3.00;;;;;;;;5096806;27;45335;-76
2022/08/27 01:44:49;;;;;;;;;3.67;3.67;;;;;;;;5097194;27;45367;-75
2022/08/27 01:47:16;;;;;;;;;5.33;5.33;;;;;;;;5096855;27;45393;-75
2022/08/27 01:49:41;;;;;;;;;4.00;4.00;;;;;;;;5096652;27;45388;-74
2022/08/27 01:52:06;;;;;;;;;5.33;5.33;;;;;;;;5096870;27;45420;-75
2022/08/27 01:54:32;;;;;;;;;4.00;4.00;;;;;;;;5096803;27;45259;-74
2022/08/27 01:56:57;;;;;;;;;5.00;5.00;;;;;;;;5115682;27;45470;-74
2022/08/27 01:59:23;;;;;;;;;3.00;3.00;;;;;;;;5107141;27;45949;-75
2022/08/27 02:01:49;;;;;;;;;4.67;4.00;;;;;;;;5110522;27;45231;-75
2022/08/27 02:04:14;;;;;;;;;4.33;4.00;;;;;;;;5096730;27;45461;-76
2022/08/27 02:06:39;;;;;;;;;4.33;4.33;;;;;;;;5090206;27;45427;-75
2022/08/27 02:09:04;;;;;;;;;6.00;4.33;;;;;;;;5096797;27;45981;-75
2022/08/27 02:11:29;;;;;;;;;4.33;4.33;;;;;;;;5096719;27;45386;-74
2022/08/27 02:13:54;;;;;;;;;4.33;4.33;;;;;;;;5096995;27;45321;-75
2022/08/27 02:16:20;;;;;;;;;2.00;2.00;;;;;;;;5097088;27;45338;-75
2022/08/27 02:18:46;;;;;;;;;6.33;5.00;;;;;;;;5086082;27;46869;-74
2022/08/27 02:21:12;;;;;;;;;5.33;5.33;;;;;;;;5092506;27;45371;-74
2022/08/27 02:23:38;;;;;;;;;6.67;5.00;;;;;;;;5077369;27;45321;-75
2022/08/27 02:26:03;;;;;;;;;3.00;3.00;;;;;;;;5081541;27;45493;-74
2022/08/27 02:28:28;;;;;;;;;4.00;4.00;;;;;;;;5096324;27;46041;-76
2022/08/27 02:30:54;;;;;;;;;3.33;3.33;;;;;;;;5091895;27;45275;-75
2022/08/27 02:33:19;;;;;;;;;2.67;2.67;;;;;;;;5084902;27;45313;-75
2022/08/27 02:35:44;;;;;;;;;5.00;5.00;;;;;;;;5075395;28;45499;-75
2022/08/27 02:38:11;;;;;;;;;3.67;3.67;;;;;;;;5075689;27;46461;-75
2022/08/27 02:40:37;;;;;;;;;4.00;3.67;;;;;;;;5075443;27;45379;-74
2022/08/27 02:43:02;;;;;;;;;3.33;3.33;;;;;;;;5076077;28;45352;-76
2022/08/27 02:45:27;;;;;;;;;3.67;3.67;;;;;;;;5076223;28;45284;-74
2022/08/27 02:47:53;;;;;;;;;4.33;4.33;;;;;;;;5079105;27;47056;-75
2022/08/27 02:50:18;;;;;;;;;4.33;4.33;;;;;;;;5078969;28;45422;-75
2022/08/27 02:52:44;;;;;;;;;4.33;4.33;;;;;;;;5079038;27;45485;-75
2022/08/27 02:55:10;;;;;;;;;3.33;3.33;;;;;;;;5079202;27;45314;-74
2022/08/27 02:57:35;;;;;;;;;4.00;3.33;;;;;;;;5078789;27;46218;-74
2022/08/27 03:00:00;;;;;;;;;5.00;5.00;;;;;;;;5078845;27;45422;-75
2022/08/27 03:02:25;;;;;;;;;4.33;4.00;;;;;;;;5079175;27;45566;-74
2022/08/27 03:04:50;;;;;;;;;3.00;3.00;;;;;;;;5060658;28;45332;-75
2022/08/27 03:07:16;;;;;;;;;4.00;3.00;;;;;;;;5060975;28;47251;-75
2022/08/27 03:09:41;;;;;;;;;4.00;4.00;;;;;;;;5078814;27;45345;-75
2022/08/27 03:12:06;;;;;;;;;4.00;4.00;;;;;;;;5079490;27;45457;-74
2022/08/27 03:14:31;;;;;;;;;6.00;4.67;;;;;;;;5079138;27;45714;-76
2022/08/27 03:18:16;;;;;;;;;4.67;3.00;;;;;;;;5078927;27;47052;-75
2022/08/27 03:19:44;;;;;;;;;2.33;2.33;;;;;;;;5078268;27;45443;-76
2022/08/27 03:22:09;;;;;;;;;2.00;2.00;;;;;;;;5060792;28;45423;-74
2022/08/27 03:24:35;;;;;;;;;5.00;5.00;;;;;;;;5078758;27;45396;-75
2022/08/27 03:27:00;;;;;;;;;5.00;4.00;;;;;;;;5078706;27;45262;-75
2022/08/27 03:29:27;;;;;;;;;3.00;3.00;;;;;;;;5060433;28;45590;-75
2022/08/27 03:31:52;;;;;;;;;4.00;4.00;;;;;;;;5078439;27;45391;-75
2022/08/27 03:34:17;;;;;;;;;4.33;4.33;;;;;;;;5078543;27;45430;-75
2022/08/27 03:36:42;;;;;;;;;5.67;4.00;;;;;;;;5060552;28;45397;-75
2022/08/27 03:39:08;;;;;;;;;7.33;4.67;;;;;;;;5078531;27;45494;-74
2022/08/27 03:41:33;;;;;;;;;4.00;4.00;;;;;;;;5078670;27;45353;-75
2022/08/27 03:43:58;;;;;;;;;4.00;3.67;;;;;;;;5078615;27;45296;-75
2022/08/27 03:46:28;;;;;;;;;4.67;4.67;;;;;;;;5078225;27;45939;-75
2022/08/27 03:48:54;;;;;;;;;5.00;4.00;;;;;;;;5078185;28;45398;-75
2022/08/27 03:51:20;;;;;;;;;3.33;3.33;;;;;;;;5063900;27;45276;-75
2022/08/27 03:53:45;;;;;;;;;3.67;3.00;;;;;;;;5078693;27;45326;-75
2022/08/27 03:56:11;;;;;;;;;4.00;4.00;;;;;;;;5074019;27;45424;-75
2022/08/27 03:58:37;;;;;;;;;3.00;3.00;;;;;;;;5068221;27;45369;-74
2022/08/27 04:01:03;;;;;;;;;6.00;6.00;;;;;;;;5078380;27;45344;-75
2022/08/27 04:03:29;;;;;;;;;2.67;2.67;;;;;;;;5077918;27;45470;-74
2022/08/27 04:05:54;;;;;;;;;5.00;4.00;;;;;;;;5078232;27;45363;-75
2022/08/27 04:08:21;;;;;;;;;3.00;3.00;;;;;;;;5064291;27;45312;-75
2022/08/27 04:10:47;;;;;;;;;4.00;4.00;;;;;;;;5078447;27;45343;-74
2022/08/27 04:13:12;;;;;;;;;4.00;3.00;;;;;;;;5078170;27;45349;-74
2022/08/27 04:15:43;;;;;;;;;3.67;3.00;;;;;;;;5078182;28;45674;-75
2022/08/27 04:18:08;;;;;;;;;2.00;2.00;;;;;;;;5060033;27;46079;-75
2022/08/27 04:20:33;;;;;;;;;3.67;3.67;;;;;;;;5077818;27;45295;-74
2022/08/27 04:22:58;;;;;;;;;2.00;2.00;;;;;;;;5078133;27;45355;-74
2022/08/27 04:25:24;;;;;;;;;2.33;2.33;;;;;;;;5077560;27;46170;-75
2022/08/27 04:27:49;;;;;;;;;4.00;2.33;;;;;;;;5077784;27;45415;-75
2022/08/27 04:30:14;;;;;;;;;2.33;2.33;;;;;;;;5077878;27;45362;-74
2022/08/27 04:32:39;;;;;;;;;3.00;3.00;;;;;;;;5078124;27;45352;-75
2022/08/27 04:35:05;;;;;;;;;3.33;3.00;;;;;;;;5077794;27;47149;-74
2022/08/27 04:37:31;;;;;;;;;4.00;4.00;;;;;;;;5077882;27;45235;-75
2022/08/27 04:39:57;;;;;;;;;3.33;3.00;;;;;;;;5077863;27;45345;-75
2022/08/27 04:42:22;;;;;;;;;4.00;3.33;;;;;;;;5077440;28;45324;-76
2022/08/27 04:44:48;;;;;;;;;4.00;2.67;;;;;;;;5077348;27;46277;-74
2022/08/27 04:47:14;;;;;;;;;4.00;3.67;;;;;;;;5077294;27;45300;-75
2022/08/27 04:49:39;;;;;;;;;4.33;3.33;;;;;;;;5077418;27;45322;-75
2022/08/27 04:52:05;;;;;;;;;2.67;2.67;;;;;;;;5077901;28;45259;-74
2022/08/27 04:54:30;;;;;;;;;2.00;2.00;;;;;;;;5076949;27;46265;-75
2022/08/27 04:56:55;;;;;;;;;5.00;3.67;;;;;;;;5077588;27;45224;-75
2022/08/27 04:59:21;;;;;;;;;4.00;3.67;;;;;;;;5077121;27;45457;-74
2022/08/27 05:01:47;;;;;;;;;3.00;3.00;;;;;;;;5077027;27;45447;-74
2022/08/27 05:04:13;;;;;;;;;3.00;3.00;;;;;;;;5077507;27;47063;-74
2022/08/27 05:06:38;;;;;;;;;3.00;3.00;;;;;;;;5059043;28;45407;-74
2022/08/27 05:09:04;;;;;;;;;2.33;2.33;;;;;;;;5058629;27;45469;-75
2022/08/27 05:11:33;;;;;;;;;2.00;2.00;;;;;;;;5077264;27;45468;-74
2022/08/27 05:14:00;;;;;;;;;3.00;3.00;;;;;;;;5076821;27;46281;-75
2022/08/27 05:16:25;;;;;;;;;4.33;2.00;;;;;;;;5077096;28;45343;-75
2022/08/27 05:18:51;;;;;;;;;2.00;2.00;;;;;;;;5077451;27;45375;-75
2022/08/27 05:21:17;;;;;;;;;2.00;2.00;;;;;;;;5077087;27;45490;-75
2022/08/27 05:23:42;;;;;;;;;3.00;3.00;;;;;;;;5076964;27;46266;-74
2022/08/27 05:26:07;;;;;;;;;3.00;2.00;;;;;;;;5076808;27;45457;-74
2022/08/27 05:28:33;;;;;;;;;3.00;3.00;;;;;;;;5076555;27;45479;-75
2022/08/27 05:31:03;;;;;;;;;2.67;2.67;;;;;;;;5076684;27;45288;-74
2022/08/27 05:33:29;;;;;;;;;2.00;2.00;;;;;;;;5076961;27;45455;-75
2022/08/27 05:35:55;;;;;;;;;3.00;3.00;;;;;;;;5076674;27;45249;-75
2022/08/27 05:38:21;;;;;;;;;3.00;3.00;;;;;;;;5077193;27;45553;-74
2022/08/27 05:40:46;;;;;;;;;2.67;2.67;;;;;;;;5076660;27;45696;-74
2022/08/27 05:43:12;;;;;;;;;4.00;4.00;;;;;;;;5076387;28;46229;-75
2022/08/27 05:45:42;;;;;;;;;4.00;3.67;;;;;;;;5076495;27;45629;-75
2022/08/27 05:48:10;;;;;;;;;3.67;3.67;;;;;;;;5076691;28;45492;-75
2022/08/27 05:50:35;;;;;;;;;4.00;4.00;;;;;;;;5076065;27;45523;-75
2022/08/27 05:53:01;;;;;;;;;4.00;3.67;;;;;;;;5075735;27;47311;-75
2022/08/27 05:55:26;;;;;;;;;3.00;3.00;;;;;;;;5076799;27;45368;-75
2022/08/27 05:57:51;;;;;;;;;3.33;3.00;;;;;;;;5076221;27;45379;-74
2022/08/27 06:03:00;;;;;;;;;3.00;2.67;;;;;;;;5076238;27;45471;-75
2022/08/27 06:05:25;;;;;;;;;3.00;3.00;;;;;;;;5076564;27;45488;-74
2022/08/27 06:07:51;;;;;;;;;3.00;3.00;;;;;;;;5076298;28;45525;-74
2022/08/27 06:10:16;;;;;;;;;3.00;3.00;;;;;;;;5076836;27;45370;-75
2022/08/27 06:12:41;;;;;;;;;3.67;3.67;;;;;;;;5075617;28;45370;-74
2022/08/27 06:15:06;;;;;;;;;2.33;2.33;;;;;;;;5076232;28;45477;-75
2022/08/27 06:17:32;;;;;;;;;2.33;2.33;;;;;;;;5076602;27;45474;-75
2022/08/27 06:19:57;;;;;;;;;2.33;2.33;;;;;;;;5075052;27;45578;-74
2022/08/27 06:22:22;;;;;;;;;2.00;2.00;;;;;;;;5075356;27;46996;-75
2022/08/27 06:24:47;;;;;;;;;2.33;2.33;;;;;;;;5075862;27;45489;-75
2022/08/27 06:27:14;;;;;;;;;1.33;1.33;;;;;;;;5076004;28;45391;-75
2022/08/27 06:29:40;;;;;;;;;3.00;3.00;;;;;;;;5075650;27;45340;-75
2022/08/27 06:32:06;;;;;;;;;2.00;2.00;;;;;;;;5075691;27;46897;-75
2022/08/27 06:34:32;;;;;;;;;4.00;3.00;;;;;;;;5076132;28;45355;-75
2022/08/27 06:36:57;;;;;;;;;2.00;2.00;;;;;;;;5075683;27;45456;-74
2022/08/27 06:39:22;;;;;;;;;3.00;3.00;;;;;;;;5075966;27;45270;-74
2022/08/27 06:41:49;;;;;;;;;2.00;2.00;;;;;;;;5075551;28;45960;-75
2022/08/27 06:44:14;;;;;;;;;2.00;2.00;;;;;;;;5075942;28;45335;-74
2022/08/27 06:46:40;;;;;;;;;2.00;2.00;;;;;;;;5075778;28;45229;-75
2022/08/27 06:49:05;;;;;;;;;2.33;2.33;;;;;;;;5057446;27;45498;-74
2022/08/27 06:51:32;;;;;;;;;3.00;2.00;;;;;;;;5057292;28;47109;-75
2022/08/27 06:53:59;;;;;;;;;2.00;2.00;;;;;;;;5075604;27;45425;-76
2022/08/27 06:56:24;;;;;;;;;2.67;2.67;;;;;;;;5075290;27;45308;-76
2022/08/27 06:58:54;;;;;;;;;1.00;1.00;;;;;;;;5075670;28;45379;-76
2022/08/27 07:01:24;;;;;;;;;2.00;2.00;;;;;;;;5074859;28;46282;-75
2022/08/27 07:03:49;;;;;;;;;1.33;1.33;;;;;;;;5075642;27;45414;-75
2022/08/27 07:06:15;;;;;;;;;2.33;2.33;;;;;;;;5075054;27;45384;-75
2022/08/27 07:08:41;;;;;;;;;3.00;2.00;;;;;;;;5075809;28;45414;-76
2022/08/27 07:11:10;;;;;;;;;2.00;2.00;;;;;;;;5075093;28;46898;-75
2022/08/27 07:13:36;;;;;;;;;2.00;2.00;;;;;;;;5075940;28;45754;-75
2022/08/27 07:16:05;;;;;;;;;3.67;3.33;;;;;;;;5075721;28;45362;-75
2022/08/27 07:18:30;;;;;;;;;1.33;1.33;;;;;;;;5075592;27;45403;-74
2022/08/27 07:20:56;;;;;;;;;2.00;2.00;;;;;;;;5074373;27;45390;-76
2022/08/27 07:23:21;;;;;;;;;2.00;2.00;;;;;;;;5075452;27;45310;-75
2022/08/27 07:25:46;;;;;;;;;1.00;1.00;;;;;;;;5075048;27;45523;-76
2022/08/27 07:28:11;;;;;;;;;2.33;2.33;;;;;;;;5075418;27;45363;-76
2022/08/27 07:30:36;;;;;;;;;2.00;2.00;;;;;;;;5075084;27;46990;-76
2022/08/27 07:33:02;;;;;;;;;2.00;2.00;;;;;;;;5077870;27;45421;-75
2022/08/27 07:35:27;;;;;;;;;2.00;2.00;;;;;;;;5078915;27;45421;-75
2022/08/27 07:37:53;;;;;;;;;1.00;1.00;;;;;;;;5078872;28;45403;-75
2022/08/27 07:40:18;;;;;;;;;3.67;2.33;;;;;;;;5078385;27;46496;-80
2022/08/27 07:45:28;;;;;;;;;1.00;1.00;;;;;;;;5079149;27;45305;-81
2022/08/27 07:47:53;;;;;;;;;1.00;1.00;;;;;;;;5078431;27;45503;-80
2022/08/27 07:50:19;;;;;;;;;1.67;1.67;;;;;;;;5078187;27;46178;-79
2022/08/27 07:52:44;;;;;;;;;1.67;1.67;;;;;;;;5078344;27;45356;-79
2022/08/27 07:55:10;;;;;;;;;1.33;0.33;;;;;;;;5078351;27;45360;-76
2022/08/27 07:57:36;;;;;;;;;2.00;2.00;;;;;;;;5078474;27;45314;-77
2022/08/27 08:00:01;;;;;;;;;0.33;0.33;;;;;;;;5077969;28;46108;-78
2022/08/27 08:02:26;;;;;;;;;1.67;1.67;;;;;;;;5078235;27;45314;-79
2022/08/27 08:04:52;;;;;;;;;0.67;0.67;;;;;;;;5078458;27;45426;-79
2022/08/27 08:07:17;;;;;;;;;2.00;2.00;;;;;;;;5078304;27;45434;-75
2022/08/27 08:09:43;;;;;;;;;1.00;1.00;;;;;;;;5077750;27;47011;-79
2022/08/27 08:12:08;;;;;;;;;1.00;1.00;;;;;;;;5077859;27;45379;-78
2022/08/27 08:14:33;;;;;;;;;2.67;1.33;;;;;;;;5078086;27;45305;-79
2022/08/27 08:17:01;;;;;;;;;2.00;0.67;;;;;;;;5078283;27;45861;-78
2022/08/27 08:19:27;;;;;;;;;1.00;1.00;;;;;;;;5078314;27;45355;-79
2022/08/27 08:21:52;;;;;;;;;3.00;1.67;;;;;;;;5077566;27;45566;-79
2022/08/27 08:24:17;;;;;;;;;1.33;1.33;;;;;;;;5078232;27;45274;-79
2022/08/27 08:26:43;;;;;;;;;2.00;0.33;;;;;;;;5077914;27;45501;-78
2022/08/27 08:29:08;;;;;;;;;4.00;2.00;;;;;;;;5077467;27;47033;-77
2022/08/27 08:31:33;;;;;;;;;1.67;1.67;;;;;;;;5077588;28;45340;-75
2022/08/27 08:33:58;;;;;;;;;2.00;2.00;;;;;;;;5077846;27;45253;-76
2022/08/27 08:36:23;;;;;;;;;2.00;2.00;;;;;;;;5078345;27;45283;-82
2022/08/27 08:38:49;;;;;;;;;2.00;2.00;;;;;;;;5077500;27;46308;-81
2022/08/27 08:41:26;;;;;;;;;2.67;2.00;;;;;;;;5077769;27;45253;-88
2022/08/27 08:43:52;;;;;;;;;3.67;2.33;;;;;;;;5077225;27;45768;-91
2022/08/27 08:46:23;;;;;;;;;2.00;2.00;;;;;;;;5077813;27;45377;-85
2022/08/27 08:48:51;;;;;;;;;3.33;3.00;;;;;;;;5077789;27;45323;-84
2022/08/27 08:51:20;;;;;;;;;2.67;2.67;;;;;;;;5077084;27;45425;-86
2022/08/27 08:53:46;;;;;;;;;2.00;2.00;;;;;;;;5077543;27;45441;-82
2022/08/27 08:56:16;;;;;;;;;3.00;3.00;;;;;;;;5077376;28;45466;-88
2022/08/27 08:58:44;;;;;;;;;3.00;3.00;;;;;;;;5077673;27;46224;-83
2022/08/27 09:01:10;;;;;;;;;4.00;3.00;;;;;;;;5076918;27;45443;-78
2022/08/27 09:03:39;;;;;;;;;2.00;2.00;;;;;;;;5076837;27;45403;-78
2022/08/27 09:06:06;;;;;;;;;3.00;3.00;;;;;;;;5076845;27;45253;-77
2022/08/27 09:08:33;;;;;;;;;3.00;2.33;;;;;;;;5076898;28;46013;-77
2022/08/27 09:10:58;;;;;;;;;2.67;2.33;;;;;;;;5076958;27;45462;-75
2022/08/27 09:13:44;;;;;;;;;2.00;2.00;;;;;;;;5077588;27;45420;-82
2022/08/27 09:16:10;;;;;;;;;2.00;2.00;;;;;;;;5065823;27;46373;-83
2022/08/27 09:18:37;;;;;;;;;4.00;4.00;;;;;;;;5076906;27;47034;-83
2022/08/27 09:21:07;;;;;;;;;4.00;2.00;;;;;;;;5076437;28;45590;-85
2022/08/27 09:23:51;;;;;;;;;3.00;3.00;;;;;;;;5077011;27;45525;-79
2022/08/27 09:26:18;;;;;;;;;4.67;3.00;;;;;;;;5076694;28;45360;-74
2022/08/27 09:31:28;;;;;;;;;4.00;3.00;;;;;;;;5077127;27;45336;-75
2022/08/27 09:33:53;;;;;;;;;2.00;2.00;;;;;;;;5079602;27;45494;-75
2022/08/27 09:36:19;;;;;;;;;1.33;1.33;;;;;;;;5076444;27;45671;-75
2022/08/27 09:38:57;;;;;;;;;2.00;2.00;;;;;;;;5076601;27;47189;-75
2022/08/27 09:41:25;;;;;;;;;3.00;2.00;;;;;;;;5076686;28;45945;-75
2022/08/27 09:43:57;;;;;;;;;3.00;3.00;;;;;;;;5076808;27;45304;-75
2022/08/27 09:46:24;;;;;;;;;2.33;2.33;;;;;;;;5076580;27;45324;-75
2022/08/27 09:48:49;;;;;;;;;3.00;3.00;;;;;;;;5076686;28;47180;-75
2022/08/27 09:51:20;;;;;;;;;3.00;2.00;;;;;;;;5075765;27;45414;-75
2022/08/27 09:53:49;;;;;;;;;2.00;2.00;;;;;;;;5076673;28;45334;-76
2022/08/27 09:56:31;;;;;;;;;1.33;1.33;;;;;;;;5076192;28;45386;-75
2022/08/27 09:58:59;;;;;;;;;2.00;2.00;;;;;;;;5076756;28;46015;-77
2022/08/27 10:01:26;;;;;;;;;2.33;2.33;;;;;;;;5076296;27;45435;-75
2022/08/27 10:04:09;;;;;;;;;1.33;1.33;;;;;;;;5075799;27;45477;-75
2022/08/27 10:06:34;;;;;;;;;2.00;2.00;;;;;;;;5076516;27;45377;-75
2022/08/27 10:09:11;;;;;;;;;3.67;2.33;;;;;;;;5076276;27;45599;-75
2022/08/27 10:11:43;;;;;;;;;1.33;1.33;;;;;;;;5076176;27;45402;-75
2022/08/27 10:14:22;;;;;;;;;2.00;2.00;;;;;;;;5076749;28;45382;-75
2022/08/27 10:16:56;;;;;;;;;3.00;2.00;;;;;;;;5075749;27;45360;-76
2022/08/27 10:19:42;;;;;;;;;2.00;2.00;;;;;;;;5075969;28;46234;-75
2022/08/27 10:22:13;;;;;;;;;2.00;2.00;;;;;;;;5065065;27;45445;-75
2022/08/27 10:24:44;;;;;;;;;3.00;1.67;;;;;;;;5076156;28;45225;-76
2022/08/27 10:27:16;;;;;;;;;2.33;2.00;;;;;;;;5076354;27;45355;-75
2022/08/27 10:29:55;;;;;;;;;2.67;1.67;;;;;;;;5075739;28;46291;-75
2022/08/27 10:32:33;;;;;;;;;1.33;1.33;;;;;;;;5063353;27;45333;-75
2022/08/27 10:35:01;;;;;;;;;1.33;1.33;;;;;;;;5075987;28;45251;-75
2022/08/27 10:37:38;;;;;;;;;2.00;2.00;;;;;;;;5076008;28;45380;-75
2022/08/27 10:40:14;;;;;;;;;1.33;1.33;;;;;;;;5075856;28;45470;-75
2022/08/27 10:42:49;;;;;;;;;2.00;2.00;;;;;;;;5075426;27;45445;-75
2022/08/27 10:45:17;;;;;;;;;1.67;1.67;;;;;;;;5075625;27;45382;-75
2022/08/27 10:48:00;;;;;;;;;2.67;2.33;;;;;;;;5075281;27;45545;-76
2022/08/27 10:50:30;;;;;;;;;1.33;1.33;;;;;;;;5075887;28;46507;-75
2022/08/27 10:53:10;;;;;;;;;3.33;2.33;;;;;;;;5075600;28;45243;-75
2022/08/27 10:55:40;;;;;;;;;3.00;2.00;;;;;;;;5075682;28;45454;-76
2022/08/27 10:58:32;;;;;;;;;4.00;1.33;;;;;;;;5076034;27;45442;-75
2022/08/27 11:00:58;;;;;;;;;2.00;2.00;;;;;;;;5012573;28;45770;-76
2022/08/27 11:03:32;;;;;;;;;2.67;2.67;;;;;;;;5043867;28;45408;-76
2022/08/27 11:05:59;;;;;;;;;2.00;1.67;;;;;;;;5053174;28;45445;-76
2022/08/27 11:08:27;;;;;;;;;3.00;1.67;;;;;;;;5056575;28;45359;-75
2022/08/27 11:10:55;;;;;;;;;2.00;2.00;;;;;;;;5056586;28;45517;-76
2022/08/27 11:13:20;;;;;;;;;2.00;2.00;;;;;;;;5056398;28;45335;-76
2022/08/27 11:15:48;;;;;;;;;2.00;2.00;;;;;;;;5056933;28;45584;-76
2022/08/27 11:18:33;;;;;;;;;1.33;1.00;;;;;;;;5056358;28;45443;-75
2022/08/27 11:21:03;;;;;;;;;2.67;2.67;;;;;;;;5056237;28;46152;-76
2022/08/27 11:23:36;;;;;;;;;1.33;1.33;;;;;;;;5056302;28;45552;-76
2022/08/27 11:26:03;;;;;;;;;2.00;2.00;;;;;;;;5056611;28;45313;-75
2022/08/27 11:28:36;;;;;;;;;0.67;0.67;;;;;;;;5056413;28;45418;-76
2022/08/27 11:31:19;;;;;;;;;2.00;2.00;;;;;;;;5055953;28;47113;-76
2022/08/27 11:33:45;;;;;;;;;2.00;2.00;;;;;;;;5055971;28;45482;-76
2022/08/27 11:36:23;;;;;;;;;3.00;2.00;;;;;;;;5056473;28;45356;-76
2022/08/27 11:38:55;;;;;;;;;1.33;1.33;;;;;;;;5096044;27;45337;-76
2022/08/27 11:41:20;;;;;;;;;3.00;3.00;;;;;;;;5098771;27;47123;-76
2022/08/27 11:43:46;;;;;;;;;2.00;2.00;;;;;;;;5099205;27;45375;-76
2022/08/27 11:46:20;;;;;;;;;2.00;2.00;;;;;;;;5098578;27;45500;-76
2022/08/27 11:48:54;;;;;;;;;2.67;2.67;;;;;;;;5099212;27;45469;-76
2022/08/27 11:51:28;;;;;;;;;2.00;2.00;;;;;;;;5098726;27;45765;-75
2022/08/27 11:53:55;;;;;;;;;1.33;1.33;;;;;;;;5098839;27;45452;-75
2022/08/27 11:56:30;;;;;;;;;2.00;2.00;;;;;;;;5098609;27;45484;-75
2022/08/27 11:58:55;;;;;;;;;2.00;2.00;;;;;;;;5099074;27;45492;-76
2022/08/27 12:01:28;;;;;;;;;3.00;1.00;;;;;;;;5098258;27;46175;-76
2022/08/27 12:04:05;;;;;;;;;1.67;1.67;;;;;;;;5078732;27;45337;-76
2022/08/27 12:06:41;;;;;;;;;4.67;2.33;;;;;;;;5078292;27;45287;-76
2022/08/27 12:09:19;;;;;;;;;2.00;2.00;;;;;;;;5078148;28;45379;-76
2022/08/27 12:11:56;;;;;;;;;4.33;2.33;;;;;;;;5077951;27;46038;-76
2022/08/27 12:14:24;;;;;;;;;2.00;2.00;;;;;;;;5077914;28;45373;-75
2022/08/27 12:17:07;;;;;;;;;1.67;1.67;;;;;;;;5077813;27;45450;-76
2022/08/27 12:19:41;;;;;;;;;2.67;1.33;;;;;;;;5076560;27;45466;-76
2022/08/27 12:22:30;;;;;;;;;2.00;2.00;;;;;;;;5077759;28;46192;-76
2022/08/27 12:24:57;;;;;;;;;1.67;0.67;;;;;;;;5011696;28;45472;-75
2022/08/27 12:27:23;;;;;;;;;2.00;2.00;;;;;;;;5015819;28;45416;-75
2022/08/27 12:29:56;;;;;;;;;2.00;2.00;;;;;;;;5015075;28;45491;-75
2022/08/27 12:32:26;;;;;;;;;1.33;1.33;;;;;;;;5015277;28;46383;-76
2022/08/27 12:35:02;;;;;;;;;1.33;1.33;;;;;;;;5015268;28;45492;-75
2022/08/27 12:37:30;;;;;;;;;2.00;2.00;;;;;;;;5015487;28;45436;-75
2022/08/27 12:39:57;;;;;;;;;1.00;1.00;;;;;;;;5015408;28;45452;-75
2022/08/27 12:42:22;;;;;;;;;2.00;2.00;;;;;;;;5014470;28;45557;-75
2022/08/27 12:44:52;;;;;;;;;5.00;3.00;;;;;;;;5014967;28;45404;-75
2022/08/27 12:47:18;;;;;;;;;2.00;2.00;;;;;;;;5015019;28;45203;-75
2022/08/27 12:49:48;;;;;;;;;2.00;2.00;;;;;;;;5015415;28;45381;-75
2022/08/27 12:52:26;;;;;;;;;2.00;2.00;;;;;;;;5014912;28;46405;-74
2022/08/27 12:54:51;;;;;;;;;1.33;1.33;;;;;;;;5015175;28;45490;-76
2022/08/27 12:57:24;;;;;;;;;2.00;2.00;;;;;;;;5015263;28;45316;-75
2022/08/27 12:59:49;;;;;;;;;2.00;2.00;;;;;;;;5014789;28;45623;-75
2022/08/27 13:02:39;;;;;;;;;2.33;1.67;;;;;;;;5053002;27;46031;-75
2022/08/27 13:05:05;;;;;;;;;1.00;1.00;;;;;;;;5014745;28;45542;-75
2022/08/27 13:07:32;;;;;;;;;2.00;2.00;;;;;;;;5014766;28;45372;-75
2022/08/27 13:10:08;;;;;;;;;3.00;3.00;;;;;;;;5014767;28;45465;-75
2022/08/27 13:12:33;;;;;;;;;1.00;1.00;;;;;;;;5013764;28;45450;-76
2022/08/27 13:15:05;;;;;;;;;2.00;2.00;;;;;;;;4997972;28;45589;-76
2022/08/27 13:17:30;;;;;;;;;2.33;1.33;;;;;;;;5014455;28;45359;-74
2022/08/27 13:19:57;;;;;;;;;2.67;2.00;;;;;;;;5014422;28;45424;-74
2022/08/27 13:22:24;;;;;;;;;2.00;2.00;;;;;;;;5014119;28;47154;-75
2022/08/27 13:24:52;;;;;;;;;2.67;2.67;;;;;;;;5014224;28;45444;-75
2022/08/27 13:27:22;;;;;;;;;0.67;0.67;;;;;;;;5014351;28;45493;-75
2022/08/27 13:29:47;;;;;;;;;1.00;1.00;;;;;;;;5013543;28;45372;-75
2022/08/27 13:32:13;;;;;;;;;1.67;1.67;;;;;;;;5014453;28;46047;-75
2022/08/27 13:34:39;;;;;;;;;1.33;1.33;;;;;;;;5014567;28;45868;-76
2022/08/27 13:37:25;;;;;;;;;1.33;1.33;;;;;;;;5014108;28;45391;-74
2022/08/27 13:39:51;;;;;;;;;2.00;2.00;;;;;;;;5010688;28;45365;-75
2022/08/27 13:42:16;;;;;;;;;0.33;0.33;;;;;;;;5049662;27;46240;-75
2022/08/27 13:44:41;;;;;;;;;2.00;2.00;;;;;;;;5076895;28;45369;-75
2022/08/27 13:47:12;;;;;;;;;2.00;2.00;;;;;;;;5076007;28;45328;-75
2022/08/27 13:49:38;;;;;;;;;1.00;1.00;;;;;;;;5076909;27;45456;-75
2022/08/27 13:52:22;;;;;;;;;1.67;1.67;;;;;;;;5076286;28;47345;-74
2022/08/27 13:55:04;;;;;;;;;2.00;2.00;;;;;;;;5062829;27;45539;-75
2022/08/27 13:57:30;;;;;;;;;2.00;2.00;;;;;;;;5076284;28;45435;-74
2022/08/27 14:00:06;;;;;;;;;2.00;2.00;;;;;;;;5076810;27;45317;-75
2022/08/27 14:02:32;;;;;;;;;3.33;3.33;;;;;;;;5071973;27;47253;-75
2022/08/27 14:05:03;;;;;;;;;2.67;2.67;;;;;;;;5096862;27;45448;-75
2022/08/27 14:07:33;;;;;;;;;1.33;1.33;;;;;;;;5097246;27;45556;-74
2022/08/27 14:10:01;;;;;;;;;1.00;1.00;;;;;;;;5096801;27;45531;-76
2022/08/27 14:12:32;;;;;;;;;2.00;2.00;;;;;;;;5096280;27;45276;-75
2022/08/27 14:14:59;;;;;;;;;4.00;2.00;;;;;;;;5096492;27;45274;-76
2022/08/27 14:17:27;;;;;;;;;2.00;2.00;;;;;;;;5097209;27;45408;-75
2022/08/27 14:19:58;;;;;;;;;1.33;1.33;;;;;;;;5096757;27;45461;-75
2022/08/27 14:22:23;;;;;;;;;2.33;2.33;;;;;;;;5096533;27;46876;-74
2022/08/27 14:24:48;;;;;;;;;2.00;2.00;;;;;;;;5095833;27;45511;-75
2022/08/27 14:27:14;;;;;;;;;1.33;1.33;;;;;;;;5096615;27;46146;-75
2022/08/27 14:29:39;;;;;;;;;1.33;1.33;;;;;;;;5096840;27;45604;-74
2022/08/27 14:32:06;;;;;;;;;2.00;2.00;;;;;;;;5097452;27;45491;-74
2022/08/27 14:34:31;;;;;;;;;1.33;1.33;;;;;;;;5101814;27;45477;-73
2022/08/27 14:36:56;;;;;;;;;1.00;1.00;;;;;;;;5096718;27;45322;-75
2022/08/27 14:39:22;;;;;;;;;1.67;1.67;;;;;;;;5096468;27;45322;-75
2022/08/27 14:41:47;;;;;;;;;2.33;2.33;;;;;;;;5092842;27;45386;-73
2022/08/27 14:44:12;;;;;;;;;2.00;2.00;;;;;;;;5083794;27;45771;-72
2022/08/27 14:46:38;;;;;;;;;3.00;1.67;;;;;;;;5095858;27;45318;-73
2022/08/27 14:49:06;;;;;;;;;3.67;2.00;;;;;;;;5094913;27;45565;-75
2022/08/27 14:51:33;;;;;;;;;2.00;2.00;;;;;;;;5101421;27;46410;-73
2022/08/27 14:53:58;;;;;;;;;5.00;4.00;;;;;;;;5116035;27;45373;-73
2022/08/27 14:56:24;;;;;;;;;3.00;2.33;;;;;;;;5116414;27;45639;-74